createdAt,value
2023-05-03T00:01:39.268Z,8.00
2023-05-03T00:06:51.916Z,9.40
2023-05-03T00:09:22.202Z,11.80
2023-05-03T00:11:49.533Z,10.60
2023-05-03T00:14:16.736Z,10.20
2023-05-03T00:16:45.116Z,11.50
2023-05-03T00:19:24.168Z,10.00
2023-05-03T00:21:58.802Z,11.60
2023-05-03T00:32:33.894Z,9.50
2023-05-03T00:35:01.706Z,13.93
2023-05-03T00:37:29.387Z,8.50
2023-05-03T00:39:56.257Z,8.63
2023-05-03T00:42:23.492Z,9.13
2023-05-03T00:44:51.708Z,15.53
2023-05-03T00:47:20.520Z,8.57
2023-05-03T00:57:36.866Z,9.33
2023-05-03T01:00:05.003Z,7.97
2023-05-03T01:02:33.773Z,7.07
2023-05-03T01:05:01.947Z,8.90
2023-05-03T01:07:38.735Z,9.27
2023-05-03T01:10:18.126Z,9.77
2023-05-03T01:12:53.857Z,13.80
2023-05-03T01:23:14.865Z,12.40
2023-05-03T01:25:43.338Z,12.30
2023-05-03T01:28:10.562Z,9.87
2023-05-03T01:30:40.206Z,10.97
2023-05-03T01:33:13.741Z,7.03
2023-05-03T01:35:45.218Z,7.90
2023-05-03T01:38:14.138Z,11.30
2023-05-03T01:43:33.457Z,10.20
2023-05-03T01:46:00.953Z,15.17
2023-05-03T01:48:28.271Z,6.90
2023-05-03T01:50:55.567Z,9.37
2023-05-03T01:53:22.822Z,8.67
2023-05-03T01:55:50.250Z,10.33
2023-05-03T01:58:17.615Z,11.13
2023-05-03T02:03:27.219Z,11.60
2023-05-03T02:05:54.353Z,10.27
2023-05-03T02:08:21.760Z,9.33
2023-05-03T02:10:49.012Z,7.67
2023-05-03T02:13:16.751Z,9.00
2023-05-03T02:15:43.939Z,11.17
2023-05-03T02:18:11.428Z,12.73
2023-05-03T02:23:23.871Z,9.73
2023-05-03T02:25:51.080Z,9.13
2023-05-03T02:28:18.308Z,9.50
2023-05-03T02:30:45.508Z,11.00
2023-05-03T02:33:12.926Z,10.47
2023-05-03T02:35:40.255Z,13.43
2023-05-03T02:38:10.086Z,10.60
2023-05-03T02:48:23.977Z,14.77
2023-05-03T02:50:51.095Z,17.27
2023-05-03T02:53:18.539Z,11.60
2023-05-03T02:55:46.142Z,11.70
2023-05-03T02:58:13.313Z,9.53
2023-05-03T03:00:40.533Z,9.03
2023-05-03T03:03:07.773Z,11.67
2023-05-03T03:05:37.332Z,11.30
2023-05-03T03:13:04.556Z,10.53
2023-05-03T03:15:31.768Z,10.90
2023-05-03T03:17:59.315Z,9.77
2023-05-03T03:20:26.677Z,12.23
2023-05-03T03:22:54.102Z,12.17
2023-05-03T03:25:21.970Z,11.53
2023-05-03T03:27:49.741Z,9.47
2023-05-03T03:30:18.945Z,11.07
2023-05-03T03:37:51.816Z,8.77
2023-05-03T03:40:22.108Z,14.73
2023-05-03T03:42:49.610Z,10.93
2023-05-03T03:45:17.204Z,14.00
2023-05-03T03:47:44.533Z,12.23
2023-05-03T03:50:12.095Z,13.43
2023-05-03T03:52:39.169Z,11.20
2023-05-03T04:02:34.004Z,11.07
2023-05-03T04:05:01.198Z,10.97
2023-05-03T04:07:28.723Z,9.70
2023-05-03T04:09:59.383Z,13.50
2023-05-03T04:12:26.294Z,12.57
2023-05-03T04:14:54.464Z,12.97
2023-05-03T04:17:21.903Z,10.77
2023-05-03T04:27:03.777Z,8.57
2023-05-03T04:29:31.746Z,13.17
2023-05-03T04:32:00.744Z,10.47
2023-05-03T04:34:30.054Z,12.07
2023-05-03T04:36:57.449Z,8.57
2023-05-03T04:39:25.206Z,13.90
2023-05-03T04:41:52.288Z,10.97
2023-05-03T04:49:24.076Z,11.10
2023-05-03T04:51:51.516Z,12.97
2023-05-03T04:54:18.996Z,9.67
2023-05-03T04:56:46.287Z,12.57
2023-05-03T04:59:13.645Z,10.17
2023-05-03T05:01:41.358Z,9.90
2023-05-03T05:04:09.390Z,10.50
2023-05-03T05:09:25.632Z,8.60
2023-05-03T05:11:54.646Z,7.90
2023-05-03T05:14:24.160Z,8.90
2023-05-03T05:16:51.804Z,7.50
2023-05-03T05:19:19.351Z,7.50
2023-05-03T05:21:46.603Z,10.10
2023-05-03T05:24:14.446Z,7.87
2023-05-03T05:26:45.956Z,12.23
2023-05-03T05:34:17.460Z,5.70
2023-05-03T05:36:44.922Z,7.80
2023-05-03T05:39:12.030Z,6.50
2023-05-03T05:41:39.691Z,8.30
2023-05-03T05:44:07.450Z,6.10
2023-05-03T05:46:34.980Z,9.03
2023-05-03T05:49:05.350Z,7.33
2023-05-03T05:51:48.443Z,5.70
2023-05-03T05:59:21.598Z,5.60
2023-05-03T06:01:48.584Z,5.77
2023-05-03T06:04:16.045Z,7.83
2023-05-03T06:06:43.560Z,15.73
2023-05-03T06:09:23.607Z,7.37
2023-05-03T06:11:51.574Z,11.40
2023-05-03T06:14:20.076Z,10.13
2023-05-03T06:16:47.625Z,9.70
2023-05-03T06:24:21.305Z,15.03
2023-05-03T06:26:49.516Z,7.70
2023-05-03T06:29:17.763Z,6.07
2023-05-03T06:31:45.306Z,7.57
2023-05-03T06:34:12.863Z,5.90
2023-05-03T06:36:40.318Z,10.13
2023-05-03T06:39:09.048Z,7.07
2023-05-03T06:44:15.150Z,7.73
2023-05-03T06:46:42.297Z,10.67
2023-05-03T06:49:09.553Z,6.90
2023-05-03T06:51:36.997Z,6.77
2023-05-03T06:54:09.086Z,6.73
2023-05-03T06:56:36.620Z,6.37
2023-05-03T06:59:04.262Z,9.77
2023-05-03T07:09:44.223Z,6.30
2023-05-03T07:12:12.241Z,7.43
2023-05-03T07:14:39.686Z,9.93
2023-05-03T07:17:07.163Z,7.03
2023-05-03T07:19:36.995Z,7.63
2023-05-03T07:22:04.306Z,7.33
2023-05-03T07:24:31.746Z,9.30
2023-05-03T07:27:16.306Z,7.80
2023-05-03T07:34:49.039Z,5.87
2023-05-03T07:37:16.945Z,5.97
2023-05-03T07:39:45.077Z,14.73
2023-05-03T07:42:12.352Z,8.83
2023-05-03T07:44:39.884Z,7.23
2023-05-03T07:47:07.399Z,9.23
2023-05-03T07:49:35.868Z,7.43
2023-05-03T07:52:19.967Z,8.63
2023-05-03T07:59:52.190Z,9.37
2023-05-03T08:02:19.207Z,11.23
2023-05-03T08:04:47.318Z,8.67
2023-05-03T08:07:15.237Z,10.10
2023-05-03T08:09:42.161Z,7.90
2023-05-03T08:12:09.553Z,11.97
2023-05-03T08:14:37.257Z,12.57
2023-05-03T08:17:05.466Z,8.30
2023-05-03T08:24:37.357Z,10.27
2023-05-03T08:27:06.004Z,10.67
2023-05-03T08:29:33.103Z,7.43
2023-05-03T08:32:01.788Z,14.70
2023-05-03T08:34:28.902Z,8.60
2023-05-03T08:36:57.209Z,8.67
2023-05-03T08:39:26.255Z,5.50
2023-05-03T08:44:37.417Z,7.53
2023-05-03T08:47:05.689Z,10.63
2023-05-03T08:49:34.651Z,10.27
2023-05-03T08:52:03.172Z,9.20
2023-05-03T08:54:30.752Z,11.47
2023-05-03T08:56:57.984Z,6.37
2023-05-03T08:59:26.833Z,6.93
2023-05-03T09:04:52.182Z,6.60
2023-05-03T09:07:19.910Z,7.27
2023-05-03T09:09:47.690Z,6.80
2023-05-03T09:12:35.062Z,6.23
2023-05-03T09:15:03.174Z,6.67
2023-05-03T09:17:30.720Z,8.37
2023-05-03T09:19:59.824Z,5.47
2023-05-03T09:28:02.742Z,5.50
2023-05-03T09:30:29.912Z,7.13
2023-05-03T09:32:57.471Z,10.73
2023-05-03T09:35:25.600Z,5.97
2023-05-03T09:37:53.030Z,9.07
2023-05-03T09:40:20.602Z,9.60
2023-05-03T09:43:07.573Z,4.50
2023-05-03T09:48:28.426Z,7.50
2023-05-03T09:50:56.494Z,6.57
2023-05-03T09:53:24.461Z,3.70
2023-05-03T09:55:52.776Z,9.67
2023-05-03T09:58:21.169Z,6.33
2023-05-03T10:00:52.281Z,8.53
2023-05-03T10:03:25.031Z,4.77
2023-05-03T10:05:56.583Z,4.57
2023-05-03T10:13:30.373Z,4.00
2023-05-03T10:16:03.258Z,4.40
2023-05-03T10:18:34.181Z,5.60
2023-05-03T10:21:10.464Z,5.10
2023-05-03T10:23:58.010Z,4.37
2023-05-03T10:26:26.154Z,4.43
2023-05-03T10:28:54.854Z,3.43
2023-05-03T10:36:50.222Z,7.10
2023-05-03T10:39:18.579Z,8.77
2023-05-03T10:41:45.816Z,4.60
2023-05-03T10:44:37.166Z,5.10
2023-05-03T10:47:12.683Z,6.50
2023-05-03T10:49:41.131Z,6.40
2023-05-03T10:52:41.854Z,4.93
2023-05-03T11:02:02.169Z,5.10
2023-05-03T11:04:44.111Z,4.37
2023-05-03T11:07:12.596Z,3.60
2023-05-03T11:09:40.134Z,5.07
2023-05-03T11:12:09.144Z,8.70
2023-05-03T11:14:37.381Z,7.40
2023-05-03T11:17:06.300Z,5.80
2023-05-03T11:22:30.017Z,7.20
2023-05-03T11:24:59.104Z,12.73
2023-05-03T11:27:27.912Z,6.13
2023-05-03T11:30:01.511Z,6.00
2023-05-03T11:32:32.073Z,10.13
2023-05-03T11:35:03.874Z,4.97
2023-05-03T11:37:33.543Z,5.93
2023-05-03T11:40:01.877Z,6.27
2023-05-03T11:47:38.594Z,8.33
2023-05-03T11:50:12.162Z,7.87
2023-05-03T11:52:40.125Z,6.00
2023-05-03T11:55:10.195Z,5.93
2023-05-03T11:57:37.909Z,4.07
2023-05-03T12:00:16.876Z,6.60
2023-05-03T12:02:50.117Z,4.73
2023-05-03T12:08:25.229Z,5.53
2023-05-03T12:10:55.896Z,6.40
2023-05-03T12:13:32.636Z,5.77
2023-05-03T12:18:47.763Z,6.23
2023-05-03T12:23:50.346Z,7.20
2023-05-03T12:31:24.360Z,6.20
2023-05-03T12:36:26.140Z,3.80
2023-05-03T12:38:56.429Z,7.53
2023-05-03T12:41:52.673Z,5.17
2023-05-03T12:44:23.635Z,3.70
2023-05-03T12:46:53.428Z,3.40
2023-05-03T12:54:33.984Z,5.93
2023-05-03T12:57:08.339Z,3.20
2023-05-03T12:59:41.692Z,5.53
2023-05-03T13:07:16.547Z,2.13
2023-05-03T13:15:43.902Z,2.83
2023-05-03T13:18:17.265Z,7.50
2023-05-03T13:20:44.885Z,4.20
2023-05-03T13:23:12.063Z,3.73
2023-05-03T13:25:40.023Z,6.23
2023-05-03T13:28:09.021Z,4.87
2023-05-03T13:30:36.609Z,8.23
2023-05-03T13:38:12.732Z,4.23
2023-05-03T13:40:46.621Z,4.23
2023-05-03T13:43:14.079Z,9.57
2023-05-03T13:45:41.840Z,3.07
2023-05-03T13:48:18.066Z,5.77
2023-05-03T13:50:51.148Z,7.70
2023-05-03T13:53:21.912Z,6.00
2023-05-03T14:00:54.745Z,4.27
2023-05-03T14:03:27.064Z,4.93
2023-05-03T14:05:56.747Z,4.47
2023-05-03T14:08:24.658Z,5.70
2023-05-03T14:10:54.079Z,3.47
2023-05-03T14:13:22.402Z,6.87
2023-05-03T14:15:49.638Z,3.63
2023-05-03T14:26:08.280Z,4.77
2023-05-03T14:28:36.448Z,6.63
2023-05-03T14:31:10.249Z,3.17
2023-05-03T14:33:39.291Z,2.97
2023-05-03T14:36:08.841Z,4.53
2023-05-03T14:38:36.737Z,8.43
2023-05-03T14:41:04.793Z,4.10
2023-05-03T14:46:34.874Z,3.07
2023-05-03T14:49:03.643Z,4.53
2023-05-03T14:51:38.544Z,4.93
2023-05-03T14:54:08.764Z,3.67
2023-05-03T14:56:37.315Z,5.73
2023-05-03T14:59:09.611Z,3.53
2023-05-03T15:01:39.365Z,7.97
2023-05-03T15:06:51.194Z,5.23
2023-05-03T15:09:20.505Z,3.17
2023-05-03T15:11:50.794Z,4.50
2023-05-03T15:14:22.433Z,5.27
2023-05-03T15:16:51.747Z,3.37
2023-05-03T15:19:19.389Z,2.37
2023-05-03T15:21:49.431Z,3.37
2023-05-03T15:27:30.612Z,6.23
2023-05-03T15:30:04.309Z,2.80
2023-05-03T15:32:32.775Z,5.17
2023-05-03T15:35:01.945Z,3.17
2023-05-03T15:37:36.494Z,5.33
2023-05-03T15:40:04.931Z,4.37
2023-05-03T15:42:34.486Z,5.67
2023-05-03T15:52:26.744Z,2.87
2023-05-03T15:54:58.106Z,9.17
2023-05-03T15:57:31.582Z,5.83
2023-05-03T16:00:01.456Z,4.47
2023-05-03T16:02:32.656Z,5.37
2023-05-03T16:05:00.250Z,3.00
2023-05-03T16:07:36.382Z,3.13
2023-05-03T16:17:11.374Z,5.03
2023-05-03T16:19:43.287Z,2.40
2023-05-03T16:22:15.961Z,5.43
2023-05-03T16:24:47.368Z,6.57
2023-05-03T16:27:17.412Z,4.83
2023-05-03T16:29:47.079Z,4.20
2023-05-03T16:32:19.235Z,4.63
2023-05-03T16:37:32.378Z,5.27
2023-05-03T16:40:05.917Z,3.73
2023-05-03T16:42:34.933Z,4.30
2023-05-03T16:45:03.722Z,3.47
2023-05-03T16:47:33.335Z,4.60
2023-05-03T16:50:01.553Z,2.90
2023-05-03T16:52:34.238Z,3.47
2023-05-03T16:58:17.978Z,2.83
2023-05-03T17:00:50.180Z,4.23
2023-05-03T17:03:22.507Z,3.53
2023-05-03T17:05:54.102Z,2.13
2023-05-03T17:08:27.310Z,6.93
2023-05-03T17:10:57.782Z,2.30
2023-05-03T17:13:28.734Z,2.17
2023-05-03T17:21:09.717Z,2.67
2023-05-03T17:23:38.875Z,2.00
2023-05-03T17:26:10.553Z,1.97
2023-05-03T17:28:41.578Z,2.83
2023-05-03T17:31:15.526Z,3.60
2023-05-03T17:33:49.098Z,2.67
2023-05-03T17:36:22.175Z,4.83
2023-05-03T17:45:44.719Z,2.27
2023-05-03T17:48:17.953Z,2.10
2023-05-03T17:50:48.402Z,2.33
2023-05-03T17:53:18.859Z,1.20
2023-05-03T17:55:52.450Z,5.07
2023-05-03T17:58:23.731Z,2.30
2023-05-03T18:00:52.845Z,2.07
2023-05-03T18:08:28.093Z,1.93
2023-05-03T18:10:56.996Z,1.63
2023-05-03T18:13:27.264Z,2.37
2023-05-03T18:15:58.645Z,3.47
2023-05-03T18:18:28.576Z,5.57
2023-05-03T18:21:00.925Z,1.63
2023-05-03T18:23:44.466Z,4.10
2023-05-03T18:33:22.527Z,1.70
2023-05-03T18:35:51.801Z,3.37
2023-05-03T18:38:22.460Z,2.57
2023-05-03T18:40:56.516Z,2.60
2023-05-03T18:43:26.103Z,1.50
2023-05-03T18:45:58.005Z,2.30
2023-05-03T18:48:27.273Z,1.63
2023-05-03T18:53:40.854Z,5.27
2023-05-03T18:56:17.380Z,1.30
2023-05-03T18:58:49.528Z,1.23
2023-05-03T19:01:23.802Z,1.80
2023-05-03T19:03:55.622Z,1.50
2023-05-03T19:06:29.260Z,1.77
2023-05-03T19:09:09.423Z,1.20
2023-05-03T19:16:51.109Z,3.00
2023-05-03T19:19:26.445Z,1.50
2023-05-03T19:21:58.933Z,1.00
2023-05-03T19:24:34.629Z,3.10
2023-05-03T19:27:10.872Z,3.47
2023-05-03T19:29:43.822Z,3.13
2023-05-03T19:32:16.873Z,2.07
2023-05-03T19:34:49.517Z,2.87
2023-05-03T19:42:29.817Z,3.30
2023-05-03T19:45:03.892Z,1.93
2023-05-03T19:47:34.615Z,4.10
2023-05-03T19:50:06.893Z,1.67
2023-05-03T19:52:40.389Z,2.37
2023-05-03T19:55:13.239Z,4.17
2023-05-03T19:57:45.225Z,3.23
2023-05-03T20:02:58.762Z,2.20
2023-05-03T20:05:31.927Z,1.90
2023-05-03T20:08:29.148Z,2.63
2023-05-03T20:11:02.336Z,3.63
2023-05-03T20:13:32.789Z,2.10
2023-05-03T20:16:07.947Z,1.60
2023-05-03T20:18:39.714Z,1.20
2023-05-03T20:26:19.366Z,2.27
2023-05-03T20:28:53.257Z,3.80
2023-05-03T20:31:26.080Z,2.07
2023-05-03T20:33:59.391Z,4.43
2023-05-03T20:36:28.261Z,5.83
2023-05-03T20:38:57.003Z,3.13
2023-05-03T20:41:27.773Z,2.20
2023-05-03T20:49:07.120Z,2.30
2023-05-03T20:51:39.976Z,1.73
2023-05-03T20:54:11.740Z,2.87
2023-05-03T20:56:39.992Z,2.70
2023-05-03T20:59:11.791Z,2.27
2023-05-03T21:01:41.191Z,5.37
2023-05-03T21:04:15.067Z,3.27
2023-05-03T21:11:48.555Z,3.53
2023-05-03T21:14:18.518Z,1.43
2023-05-03T21:16:49.870Z,4.20
2023-05-03T21:19:17.774Z,2.33
2023-05-03T21:21:46.275Z,3.30
2023-05-03T21:24:16.591Z,5.20
2023-05-03T21:26:44.976Z,1.53
2023-05-03T21:32:16.968Z,2.60
2023-05-03T21:34:46.481Z,3.10
2023-05-03T21:37:14.708Z,5.30
2023-05-03T21:39:45.239Z,3.37
2023-05-03T21:42:18.558Z,2.90
2023-05-03T21:44:47.754Z,2.60
2023-05-03T21:47:15.977Z,1.93
2023-05-03T21:49:44.123Z,1.77
2023-05-03T21:57:11.416Z,4.53
2023-05-03T21:59:38.862Z,2.57
2023-05-03T22:02:06.083Z,5.67
2023-05-03T22:04:34.458Z,3.33
2023-05-03T22:07:03.167Z,3.20
2023-05-03T22:09:30.603Z,4.97
2023-05-03T22:11:58.622Z,5.17
2023-05-03T22:17:12.279Z,4.07
2023-05-03T22:19:40.342Z,3.20
2023-05-03T22:22:07.652Z,2.90
2023-05-03T22:24:35.182Z,3.83
2023-05-03T22:27:02.361Z,5.60
2023-05-03T22:29:30.729Z,3.80
2023-05-03T22:31:57.718Z,3.60
2023-05-03T22:37:06.383Z,2.53
2023-05-03T22:39:35.210Z,3.30
2023-05-03T22:42:02.562Z,3.47
2023-05-03T22:44:29.984Z,1.87
2023-05-03T22:46:57.906Z,5.53
2023-05-03T22:49:25.186Z,5.30
2023-05-03T22:51:52.172Z,1.97
2023-05-03T22:57:15.189Z,5.83
2023-05-03T22:59:45.173Z,4.83
2023-05-03T23:02:12.358Z,1.93
2023-05-03T23:04:39.720Z,5.83
2023-05-03T23:07:06.835Z,3.70
2023-05-03T23:09:34.306Z,6.10
2023-05-03T23:12:01.757Z,3.37
2023-05-03T23:22:18.595Z,4.90
2023-05-03T23:24:46.556Z,2.60
2023-05-03T23:27:14.084Z,3.33
2023-05-03T23:29:42.000Z,6.07
2023-05-03T23:32:09.911Z,3.07
2023-05-03T23:34:38.088Z,5.20
2023-05-03T23:37:05.482Z,4.17
2023-05-03T23:42:16.105Z,2.27
2023-05-03T23:44:54.680Z,4.93
2023-05-03T23:47:23.158Z,3.13
2023-05-03T23:49:50.737Z,4.63
2023-05-03T23:52:19.295Z,4.27
2023-05-03T23:54:46.572Z,2.50
2023-05-03T23:57:14.556Z,3.47
